ADDS METAR Data INFO
IDs: Format: Raw Decoded Include TAF

Data at: 0108 UTC 24 Jun 2018

KZZV 240053Z AUTO 23005KT 10SM CLR 23/18 A2980 RMK AO2 SLP085 T02330178
KZZV 232353Z AUTO 24005KT 10SM FEW035 24/18 A2979 RMK AO2 SLP082 60012 T02390178 10256 20222 53003
KZZV 232253Z AUTO 24006KT 10SM SCT036 OVC090 24/18 A2978 RMK AO2 SLP078 T02440178
KZZV 232153Z AUTO 24006KT 10SM FEW038 SCT075 SCT090 26/20 A2978 RMK AO2 RAE12 SLP076 P0002 T02560200
KZZV 232053Z AUTO 28006KT 4SM -RA FEW033 SCT055 BKN075 23/19 A2978 RMK AO2 RAB05E28B51 SLP078 P0002 60010 T02330194 53005
KZZV 231953Z AUTO 26005KT 10SM FEW043 FEW065 OVC090 24/19 A2977 RMK AO2 RAB18E43 SLP075 P0001 T02440194
KZZV 231853Z AUTO 26004KT 10SM SCT037 BKN050 OVC070 23/19 A2977 RMK AO2 RAB27E43 SLP074 P0007 T02280189
KZZV 231844Z AUTO 25005KT 10SM BKN037 BKN050 OVC065 22/18 A2977 RMK AO2 RAB27E43 P0007 T02220183
KZZV 231837Z AUTO 26006G20KT 2 1/2SM RA SCT035 BKN050 OVC060 22/18 A2977 RMK AO2 VIS 1V5 RAB27 P0007 T02220178
KZZV 231753Z AUTO 23009KT 10SM BKN035 BKN046 24/17 A2977 RMK AO2 SLP073 T02440172 10256 20206 57003
KZZV 231653Z AUTO 25012KT 10SM FEW034 25/17 A2977 RMK AO2 SLP073 T02500172
KZZV 231553Z AUTO 25010KT 10SM FEW060 FEW110 24/18 A2977 RMK AO2 SLP075 T02440178 $
KZZV 231523Z AUTO 24010KT 10SM FEW023 SCT028 BKN055 23/17 A2978 RMK AO2 T02330172 $
KZZV 231509Z AUTO 23009KT 10SM FEW018 BKN026 BKN031 23/18 A2978 RMK AO2 T02330178 $
KZZV 231453Z AUTO 21006KT 10SM SCT019 SCT026 BKN038 22/18 A2977 RMK AO2 SLP076 T02220178 53001 $
KZZV 231424Z AUTO VRB06KT 10SM SCT020 BKN036 OVC044 22/18 A2977 RMK AO2 T02220178 $
KZZV 231353Z AUTO 22005KT 10SM SCT014 BKN019 OVC025 21/18 A2977 RMK AO2 SLP075 T02110178 $
KZZV 231350Z AUTO 22008KT 10SM BKN014 BKN019 OVC025 22/18 A2977 RMK AO2 $
KZZV 231253Z AUTO 22007KT 10SM FEW016 BKN024 BKN060 21/18 A2977 RMK AO2 SLP075 T02110183 $
KZZV 231153Z AUTO 20007KT 10SM BKN022 OVC026 21/18 A2976 RMK AO2 SLP072 70118 T02060178 10211 20189 53010 $
KZZV 231053Z AUTO 18006KT 10SM OVC021 20/18 A2975 RMK AO2 SLP067 T02000178 $
KZZV 231004Z AUTO 19006KT 10SM FEW009 BKN019 OVC045 19/18 A2974 RMK AO2 T01940178 $
KZZV 230953Z AUTO 20006KT 10SM FEW009 SCT021 BKN044 19/18 A2973 RMK AO2 SLP062 T01940178 $
KZZV 230949Z AUTO 19006KT 10SM SCT009 BKN044 19/18 A2973 RMK AO2 $
KZZV 230942Z AUTO 20007KT 10SM SCT011 BKN045 19/18 A2973 RMK AO2 T01890178 $
KZZV 230911Z AUTO 19008KT 10SM BKN011 BKN017 19/18 A2974 RMK AO2 T01940178 $
KZZV 230903Z AUTO 19007KT 10SM FEW007 BKN015 BKN020 19/18 A2973 RMK AO2 T01940178 $
KZZV 230853Z AUTO 21006KT 10SM SCT007 BKN014 19/18 A2973 RMK AO2 SLP060 T01940178 56002 $
KZZV 230814Z AUTO 19005KT 10SM BKN009 OVC055 19/18 A2973 RMK AO2 T01940178 $
KZZV 230753Z AUTO 19006KT 10SM FEW009 OVC060 19/18 A2973 RMK AO2 SLP058 T01940178 $
KZZV 230653Z AUTO 19004KT 10SM BKN030 BKN043 OVC060 19/18 A2973 RMK AO2 SLP059 T01940178 $
KZZV 230633Z AUTO 18004KT 10SM FEW009 SCT043 OVC100 19/18 A2973 RMK AO2 T01940178 $
KZZV 230553Z AUTO 20003KT 10SM SCT080 BKN110 19/18 A2973 RMK AO2 SLP061 60000 T01940178 10222 20194 57001 $
KZZV 230453Z AUTO 17004KT 10SM OVC090 20/18 A2973 RMK AO2 RAB0358E13 SLP059 P0000 T02000178 402720200 $
KZZV 230353Z AUTO 20007KT 10SM FEW044 BKN060 BKN120 21/18 A2974 RMK AO2 RAB28E43 SLP064 P0000 T02060183 $
KZZV 230318Z AUTO 16005KT 10SM SCT006 SCT110 21/19 A2973 RMK AO2 T02110194 $
KZZV 230253Z AUTO 15007KT 10SM BKN006 OVC110 22/20 A2973 RMK AO2 SLP062 60000 T02170200 50001 $
KZZV 230244Z AUTO 15007KT 10SM BKN006 OVC110 21/20 A2974 RMK AO2 T02110200 $
KZZV 230216Z AUTO 12008KT 10SM FEW009 BKN110 21/20 A2974 RMK AO2 T02110200 $
KZZV 230153Z AUTO 11005KT 10SM CLR 21/20 A2974 RMK AO2 SLP064 T02110200 $
KZZV 230104Z AUTO 10006KT 10SM FEW008 21/19 A2975 RMK AO2 LTG DSNT SE T02110194 $
KZZV 230053Z AUTO 10006KT 10SM FEW019 SCT110 22/19 A2975 RMK AO2 LTG DSNT SE RAE2355 SLP066 P0000 T02170194 $
KZZV 222353Z AUTO 08008KT 10SM -RA FEW030 SCT075 BKN100 22/20 A2973 RMK AO2 RAB34 SLP061 P0003 60118 T02220200 10272 20206 50001 $
KZZV 222253Z AUTO 08004KT 10SM SCT050 SCT110 23/21 A2974 RMK AO2 LTG DSNT SW SLP064 T02330206 $
KZZV 222202Z AUTO 14005KT 10SM FEW033 23/20 A2974 RMK AO2 LTG DSNT N AND NE T02330200 $
KZZV 222153Z AUTO 12007KT 10SM VCTS CLR 23/19 A2973 RMK AO2 LTG DSNT N AND NE RAB08E23 TSE45 SLP061 P0047 T02330194 $
KZZV 222151Z AUTO 11006KT 10SM VCTS CLR 23/20 A2973 RMK AO2 LTG DSNT N AND NE RAB08E23 TSE45 P0047 $
KZZV 222113Z AUTO 33007KT +TSRA 21/19 A2972 RMK AO2 LTG DSNT N AND SE RAB08 P0047 T02060189 $
KZZV 222053Z AUTO 29006KT 1/2SM -TSRA FG SCT015 OVC025 22/20 A2972 RMK AO2 LTG DSNT W-NE RAB08 TSB30 SLP058 P0068 60068 T02220200 56004
KZZV 222040Z AUTO 18005KT 3/4SM +TSRA BR SCT018 BKN030 OVC045 23/21 A2973 RMK AO2 LTG DSNT NW-NE RAB08 TSB30 P0040 T02330211
KZZV 222038Z AUTO 15005KT 1 3/4SM +TSRA SCT021 BKN037 OVC048 24/21 A2973 RMK AO2 LTG DSNT W-NE RAB08 TSB30 P0030 T02390211
KZZV 222036Z AUTO 15005KT 4SM -TSRA SCT023 BKN037 OVC050 24/21 A2973 RMK AO2 LTG DSNT W-NE RAB08 TSB30 P0022 T02390206
KZZV 222027Z AUTO 15004KT 6SM VCTS -RA FEW027 SCT036 OVC048 24/21 A2972 RMK AO2 LTG DSNT SW-N RAB08 P0016 T02440206
KZZV 222019Z AUTO 13006KT 3SM -RA FEW024 BKN045 OVC080 24/21 A2972 RMK AO2 LTG DSNT SW-N RAB08 P0013 T02440206
KZZV 222012Z AUTO 13009G18KT 1 3/4SM +RA FEW035 BKN043 OVC075 24/21 A2972 RMK AO2 LTG DSNT SW-N RAB08 P0013 T02390206
KZZV 221953Z AUTO 13011KT 10SM FEW028 SCT043 BKN050 27/21 A2973 RMK AO2 LTG DSNT SW-N SLP058 T02670211
KZZV 221853Z AUTO 15010KT 10SM FEW022 SCT030 27/22 A2972 RMK AO2 LTG DSNT W AND NW SLP056 T02720217
KZZV 221839Z AUTO 16008KT 10SM SCT020 SCT025 27/22 A2972 RMK AO2 LTG DSNT W AND NW T02670217
KZZV 221828Z AUTO 14009KT 10SM BKN020 BKN027 27/22 A2973 RMK AO2 LTG DSNT W AND NW T02670217
KZZV 221820Z AUTO 15008KT 10SM SCT020 27/22 A2973 RMK AO2 LTG DSNT W AND NW T02670217
KZZV 221809Z AUTO 15007KT 10SM FEW018 SCT023 BKN028 26/22 A2973 RMK AO2 LTG DSNT W AND NW T02610217
KZZV 221753Z AUTO 14008KT 10SM SCT019 SCT024 BKN031 26/21 A2974 RMK AO2 LTG DSNT W AND NW SLP061 T02560211 10261 20206 58012
KZZV 221653Z AUTO 15006KT 10SM BKN016 BKN120 25/22 A2976 RMK AO2 SLP071 T02500217
KZZV 221610Z AUTO 16007KT 10SM FEW015 24/21 A2977 RMK AO2 T02440211
KZZV 221553Z AUTO 16007KT 10SM FEW010 BKN015 24/21 A2977 RMK AO2 SLP074 T02440211
KZZV 221541Z AUTO 16008KT 10SM SCT014 BKN019 24/21 A2977 RMK AO2 T02440211
KZZV 221514Z AUTO 19005KT 10SM SCT009 SCT029 BKN035 24/21 A2977 RMK AO2 LTG DSNT E T02390211
KZZV 221459Z AUTO 16004KT 10SM SCT010 BKN019 BKN029 23/21 A2977 RMK AO2 LTG DSNT SE CIG 015V025 T02330211
KZZV 221453Z AUTO 14005KT 10SM BKN008 BKN019 OVC035 23/21 A2977 RMK AO2 LTG DSNT SE CIG 006V013 SLP074 T02330211 50002
KZZV 221430Z AUTO 18004KT 10SM BKN007 OVC013 23/21 A2978 RMK AO2 CIG 004V010 T02330211
KZZV 221353Z AUTO 14006KT 10SM BKN006 OVC011 22/21 A2977 RMK AO2 CIG 003V008 SLP075 T02220206
KZZV 221340Z AUTO 13005KT 8SM OVC004 22/21 A2977 RMK AO2 T02170206